createdAt,value
2022-09-23T00:00:59.800Z,50.03
2022-09-23T00:03:39.825Z,50.05
2022-09-23T00:06:14.177Z,50.06
2022-09-23T00:08:47.588Z,50.07
2022-09-23T00:11:22.949Z,50.11
2022-09-23T00:13:58.471Z,50.01
2022-09-23T00:16:34.042Z,50.00
2022-09-23T00:19:07.530Z,50.06
2022-09-23T00:21:40.745Z,50.05
2022-09-23T00:24:13.444Z,49.96
2022-09-23T00:26:48.044Z,49.90
2022-09-23T00:29:20.718Z,50.07
2022-09-23T00:31:54.335Z,50.01
2022-09-23T00:34:27.175Z,50.07
2022-09-23T00:37:00.592Z,50.08
2022-09-23T00:39:33.392Z,49.97
2022-09-23T00:42:08.029Z,50.07
2022-09-23T00:44:48.698Z,50.06
2022-09-23T00:47:23.778Z,50.02
2022-09-23T00:50:00.338Z,50.01
2022-09-23T00:52:34.211Z,50.11
2022-09-23T00:55:08.742Z,50.11
2022-09-23T00:57:45.066Z,50.07
2022-09-23T01:00:17.810Z,50.02
2022-09-23T01:02:51.653Z,50.20
2022-09-23T01:05:24.503Z,50.06
2022-09-23T01:07:58.509Z,50.11
2022-09-23T01:10:34.755Z,50.08
2022-09-23T01:13:16.050Z,50.11
2022-09-23T01:15:50.520Z,50.12
2022-09-23T01:18:27.093Z,50.25
2022-09-23T01:21:07.560Z,50.19
2022-09-23T01:23:59.388Z,50.33
2022-09-23T01:26:43.568Z,50.09
2022-09-23T01:29:33.349Z,50.14
2022-09-23T01:32:13.678Z,50.14
2022-09-23T01:34:49.442Z,50.11
2022-09-23T01:37:25.920Z,50.06
2022-09-23T01:40:02.861Z,50.12
2022-09-23T01:42:39.548Z,50.17
2022-09-23T01:45:16.169Z,50.17
2022-09-23T01:47:53.570Z,50.19
2022-09-23T01:50:46.501Z,50.13
2022-09-23T01:53:22.205Z,50.18
2022-09-23T01:55:57.851Z,50.22
2022-09-23T01:58:34.647Z,50.16
2022-09-23T02:01:09.399Z,50.31
2022-09-23T02:03:46.598Z,50.32
2022-09-23T02:06:22.740Z,50.19
2022-09-23T02:09:00.481Z,50.47
2022-09-23T02:11:36.286Z,50.33
2022-09-23T02:14:14.853Z,50.32
2022-09-23T02:16:50.048Z,50.35
2022-09-23T02:19:29.254Z,50.25
2022-09-23T02:22:06.387Z,50.34
2022-09-23T02:24:40.683Z,50.31
2022-09-23T02:27:19.414Z,50.31
2022-09-23T02:29:56.491Z,50.39
2022-09-23T02:32:33.010Z,50.41
2022-09-23T02:35:12.351Z,50.26
2022-09-23T02:37:48.087Z,50.38
2022-09-23T02:40:23.896Z,50.37
2022-09-23T02:43:02.741Z,50.41
2022-09-23T02:45:38.955Z,50.33
2022-09-23T02:48:14.727Z,50.27
2022-09-23T02:50:49.149Z,50.48
2022-09-23T02:53:23.922Z,50.28
2022-09-23T02:55:57.738Z,50.39
2022-09-23T02:58:30.922Z,50.24
2022-09-23T03:01:08.879Z,50.22
2022-09-23T03:03:45.801Z,50.10
2022-09-23T03:06:27.653Z,50.26
2022-09-23T03:09:03.594Z,50.34
2022-09-23T03:11:39.375Z,50.28
2022-09-23T03:14:18.030Z,50.40
2022-09-23T03:16:54.049Z,50.22
2022-09-23T03:19:30.089Z,50.21
2022-09-23T03:22:08.198Z,50.22
2022-09-23T03:24:44.876Z,50.30
2022-09-23T03:27:19.508Z,50.17
2022-09-23T03:29:54.371Z,50.04
2022-09-23T03:32:29.130Z,50.14
2022-09-23T03:35:04.532Z,50.25
2022-09-23T03:37:41.153Z,50.23
2022-09-23T03:40:16.791Z,50.18
2022-09-23T03:42:50.230Z,50.18
2022-09-23T03:45:26.102Z,50.13
2022-09-23T03:47:59.516Z,50.23
2022-09-23T03:50:32.649Z,50.13
2022-09-23T03:53:06.922Z,50.13
2022-09-23T03:56:16.533Z,50.23
2022-09-23T03:59:08.368Z,49.89
2022-09-23T04:01:41.828Z,49.97
2022-09-23T04:04:14.883Z,49.91
2022-09-23T04:06:48.320Z,50.12
2022-09-23T04:09:22.861Z,50.15
2022-09-23T04:11:56.082Z,50.16
2022-09-23T04:14:29.214Z,50.23
2022-09-23T04:17:02.773Z,50.47
2022-09-23T04:19:36.597Z,50.21
2022-09-23T04:22:10.319Z,50.26
2022-09-23T04:24:45.242Z,50.24
2022-09-23T04:27:18.708Z,50.27
2022-09-23T04:29:52.085Z,50.17
2022-09-23T04:32:25.632Z,50.23
2022-09-23T04:34:59.076Z,50.23
2022-09-23T04:37:32.516Z,50.34
2022-09-23T04:40:08.089Z,50.32
2022-09-23T04:42:41.485Z,50.14
2022-09-23T04:45:14.864Z,50.36
2022-09-23T04:47:48.100Z,50.33
2022-09-23T04:50:21.374Z,50.36
2022-09-23T04:52:55.113Z,50.37
2022-09-23T04:55:30.232Z,50.27
2022-09-23T04:58:03.631Z,50.32
2022-09-23T05:00:36.963Z,50.25
2022-09-23T05:03:10.827Z,50.16
2022-09-23T05:05:44.184Z,50.21
2022-09-23T05:08:17.542Z,50.05
2022-09-23T05:10:57.457Z,50.11
2022-09-23T05:13:31.164Z,50.22
2022-09-23T05:16:05.849Z,50.30
2022-09-23T05:18:42.697Z,50.29
2022-09-23T05:21:16.852Z,50.24
2022-09-23T05:23:54.155Z,50.39
2022-09-23T05:26:29.286Z,50.20
2022-09-23T05:29:02.723Z,50.17
2022-09-23T05:31:36.716Z,50.15
2022-09-23T05:34:10.306Z,50.21
2022-09-23T05:36:43.724Z,50.05
2022-09-23T05:39:16.983Z,50.07
2022-09-23T05:41:52.918Z,50.32
2022-09-23T05:44:26.577Z,50.01
2022-09-23T05:46:59.733Z,50.08
2022-09-23T05:49:55.299Z,50.09
2022-09-23T05:52:26.092Z,50.03
2022-09-23T05:54:59.388Z,50.13
2022-09-23T05:57:33.971Z,49.97
2022-09-23T06:00:07.877Z,50.05
2022-09-23T06:02:45.232Z,49.94
2022-09-23T06:05:18.542Z,50.16
2022-09-23T06:07:51.889Z,49.99
2022-09-23T06:10:25.187Z,50.06
2022-09-23T06:12:59.993Z,50.04
2022-09-23T06:15:33.473Z,49.96
2022-09-23T06:18:07.295Z,50.05
2022-09-23T06:20:40.725Z,49.92
2022-09-23T06:23:14.045Z,49.92
2022-09-23T06:25:47.422Z,49.78
2022-09-23T06:28:23.014Z,49.92
2022-09-23T06:30:58.118Z,49.83
2022-09-23T06:33:37.128Z,49.94
2022-09-23T06:36:10.802Z,49.88
2022-09-23T06:38:45.402Z,49.88
2022-09-23T06:41:20.651Z,49.94
2022-09-23T06:43:55.151Z,49.86
2022-09-23T06:46:28.410Z,49.82
2022-09-23T06:49:02.953Z,49.89
2022-09-23T06:51:36.721Z,49.92
2022-09-23T06:54:11.112Z,49.92
2022-09-23T06:56:45.120Z,49.91
2022-09-23T06:59:19.715Z,50.02
2022-09-23T07:01:53.093Z,50.12
2022-09-23T07:04:29.341Z,50.05
2022-09-23T07:07:02.758Z,50.06
2022-09-23T07:09:35.796Z,50.06
2022-09-23T07:12:09.191Z,49.96
2022-09-23T07:14:44.167Z,51.00
2022-09-23T07:17:17.539Z,51.29
2022-09-23T07:19:51.690Z,50.76
2022-09-23T07:22:26.578Z,50.91
2022-09-23T07:24:59.854Z,43.86
2022-09-23T07:27:33.418Z,45.31
2022-09-23T07:30:18.535Z,45.39
2022-09-23T07:32:56.271Z,44.40
2022-09-23T07:35:29.366Z,45.08
2022-09-23T07:38:02.586Z,47.83
2022-09-23T07:40:36.108Z,47.27
2022-09-23T07:43:09.823Z,47.58
2022-09-23T07:45:45.608Z,47.91
2022-09-23T07:48:19.074Z,48.36
2022-09-23T07:50:52.239Z,48.28
2022-09-23T07:53:25.565Z,48.67
2022-09-23T07:55:59.675Z,48.42
2022-09-23T07:58:33.560Z,48.84
2022-09-23T08:01:08.995Z,48.83
2022-09-23T08:03:43.856Z,48.76
2022-09-23T08:06:16.903Z,48.60
2022-09-23T08:08:53.282Z,48.73
2022-09-23T08:11:27.386Z,48.69
2022-09-23T08:14:00.671Z,48.42
2022-09-23T08:16:35.123Z,48.32
2022-09-23T08:19:09.050Z,48.12
2022-09-23T08:21:42.572Z,48.06
2022-09-23T08:24:17.416Z,47.92
2022-09-23T08:26:53.330Z,47.57
2022-09-23T08:29:26.958Z,47.51
2022-09-23T08:32:01.496Z,47.35
2022-09-23T08:34:35.924Z,47.13
2022-09-23T08:37:10.534Z,46.65
2022-09-23T08:39:43.722Z,46.23
2022-09-23T08:42:18.901Z,45.99
2022-09-23T08:44:55.558Z,45.61
2022-09-23T08:47:31.560Z,45.88
2022-09-23T08:50:07.268Z,45.21
2022-09-23T08:52:43.641Z,45.84
2022-09-23T08:55:17.474Z,41.26
2022-09-23T08:58:23.438Z,43.94
2022-09-23T09:00:54.817Z,43.23
2022-09-23T09:03:32.798Z,43.10
2022-09-23T09:06:06.137Z,43.29
2022-09-23T09:08:39.884Z,44.69
2022-09-23T09:11:15.019Z,43.89
2022-09-23T09:13:54.484Z,44.11
2022-09-23T09:16:58.937Z,44.35
2022-09-23T09:19:56.695Z,44.48
2022-09-23T09:22:38.363Z,44.37
2022-09-23T09:25:18.986Z,44.33
2022-09-23T09:27:53.052Z,43.91
2022-09-23T09:30:26.511Z,44.23
2022-09-23T09:33:03.125Z,44.40
2022-09-23T09:35:41.852Z,44.86
2022-09-23T09:38:15.367Z,45.18
2022-09-23T09:40:49.148Z,45.22
2022-09-23T09:43:23.205Z,45.41
2022-09-23T09:46:03.254Z,45.43
2022-09-23T09:48:39.281Z,45.62
2022-09-23T09:51:21.464Z,45.57
2022-09-23T09:53:56.116Z,45.73
2022-09-23T09:56:32.594Z,45.86
2022-09-23T09:59:10.721Z,44.68
2022-09-23T10:01:43.699Z,43.85
2022-09-23T10:04:23.711Z,43.22
2022-09-23T10:07:09.417Z,42.70
2022-09-23T10:09:49.062Z,43.26
2022-09-23T10:12:22.897Z,42.52
2022-09-23T10:14:57.376Z,41.78
2022-09-23T10:17:33.192Z,41.60
2022-09-23T10:20:09.079Z,42.19
2022-09-23T10:22:44.102Z,42.19
2022-09-23T10:25:20.685Z,41.62
2022-09-23T10:27:53.969Z,42.07
2022-09-23T10:30:29.071Z,42.28
2022-09-23T10:33:03.095Z,42.12
2022-09-23T10:35:36.498Z,42.30
2022-09-23T10:38:11.758Z,42.29
2022-09-23T10:41:02.581Z,42.20
2022-09-23T10:43:55.750Z,41.93
2022-09-23T10:46:42.503Z,42.43
2022-09-23T10:49:23.582Z,41.92
2022-09-23T10:52:02.814Z,42.05
2022-09-23T10:54:45.836Z,42.43
2022-09-23T10:57:44.871Z,41.88
2022-09-23T11:00:23.055Z,41.52
2022-09-23T11:03:18.346Z,41.16
2022-09-23T11:05:58.978Z,40.82
2022-09-23T11:08:42.665Z,40.58
2022-09-23T11:11:24.622Z,40.61
2022-09-23T11:14:15.851Z,40.31
2022-09-23T11:16:55.461Z,40.25
2022-09-23T11:19:43.399Z,40.20
2022-09-23T11:22:32.381Z,40.27
2022-09-23T11:25:23.951Z,39.39
2022-09-23T11:28:07.118Z,39.00
2022-09-23T11:30:44.722Z,38.83
2022-09-23T11:33:27.972Z,38.54
2022-09-23T11:36:04.232Z,38.47
2022-09-23T11:38:38.944Z,39.17
2022-09-23T11:41:18.681Z,39.44
2022-09-23T11:43:55.777Z,39.66
2022-09-23T11:46:33.093Z,40.02
2022-09-23T11:49:10.252Z,40.27
2022-09-23T11:51:45.985Z,40.50
2022-09-23T11:54:21.664Z,39.81
2022-09-23T11:56:57.063Z,38.84
2022-09-23T11:59:40.486Z,39.08
2022-09-23T12:02:22.185Z,38.54
2022-09-23T12:05:01.514Z,38.25
2022-09-23T12:07:43.451Z,38.40
2022-09-23T12:10:17.263Z,38.66
2022-09-23T12:12:56.181Z,38.83
2022-09-23T12:15:41.258Z,38.70
2022-09-23T12:18:35.898Z,38.38
2022-09-23T12:21:33.020Z,38.58
2022-09-23T12:24:24.698Z,38.42
2022-09-23T12:27:00.238Z,38.89
2022-09-23T12:29:34.087Z,38.60
2022-09-23T12:32:10.045Z,38.64
2022-09-23T12:34:48.841Z,38.86
2022-09-23T12:37:27.215Z,39.03
2022-09-23T12:40:02.387Z,39.29
2022-09-23T12:42:36.583Z,39.39
2022-09-23T12:45:34.691Z,39.67
2022-09-23T12:48:23.524Z,40.38
2022-09-23T12:51:07.780Z,41.47
2022-09-23T12:53:55.619Z,42.08
2022-09-23T12:56:49.872Z,42.31
2022-09-23T12:59:26.226Z,43.33
2022-09-23T13:02:11.830Z,43.03
2022-09-23T13:05:03.388Z,42.40
2022-09-23T13:07:42.016Z,41.50
2022-09-23T13:10:18.007Z,41.61
2022-09-23T13:12:52.494Z,40.08
2022-09-23T13:15:29.011Z,40.09
2022-09-23T13:18:20.561Z,41.78
2022-09-23T13:20:55.047Z,40.00
2022-09-23T13:23:31.304Z,39.46
2022-09-23T13:26:12.589Z,40.00
2022-09-23T13:28:55.527Z,40.00
2022-09-23T13:31:28.590Z,39.94
2022-09-23T13:34:03.026Z,39.42
2022-09-23T13:36:44.442Z,39.50
2022-09-23T13:39:24.575Z,39.73
2022-09-23T13:42:02.906Z,39.75
2022-09-23T13:44:36.221Z,40.75
2022-09-23T13:47:13.475Z,41.19
2022-09-23T13:49:48.018Z,41.54
2022-09-23T13:52:26.435Z,41.73
2022-09-23T13:55:00.978Z,41.90
2022-09-23T13:57:35.420Z,42.04
2022-09-23T14:00:18.572Z,42.34
2022-09-23T14:02:52.951Z,42.37
2022-09-23T14:05:27.629Z,42.58
2022-09-23T14:08:01.177Z,43.06
2022-09-23T14:10:35.853Z,42.54
2022-09-23T14:13:14.737Z,42.77
2022-09-23T14:15:49.140Z,42.94
2022-09-23T14:18:27.396Z,42.83
2022-09-23T14:21:00.919Z,42.99
2022-09-23T14:23:34.158Z,42.89
2022-09-23T14:26:08.728Z,43.40
2022-09-23T14:28:42.121Z,43.24
2022-09-23T14:31:15.593Z,43.13
2022-09-23T14:33:48.777Z,43.57
2022-09-23T14:36:39.932Z,43.34
2022-09-23T14:39:13.539Z,43.50
2022-09-23T14:41:48.055Z,41.64
2022-09-23T14:44:22.782Z,39.93
2022-09-23T14:46:58.667Z,41.29
2022-09-23T14:49:32.843Z,42.89
2022-09-23T14:52:06.952Z,38.86
2022-09-23T14:54:44.684Z,41.50
2022-09-23T14:57:31.312Z,42.45
2022-09-23T15:00:14.767Z,42.39
2022-09-23T15:02:58.843Z,42.71
2022-09-23T15:05:33.641Z,43.37
2022-09-23T15:08:07.496Z,43.88
2022-09-23T15:10:41.369Z,44.09
2022-09-23T15:13:17.868Z,43.91
2022-09-23T15:15:52.863Z,44.48
2022-09-23T15:18:27.646Z,42.88
2022-09-23T15:21:02.551Z,44.17
2022-09-23T15:23:36.980Z,44.26
2022-09-23T15:26:11.519Z,44.59
2022-09-23T15:28:46.509Z,44.64
2022-09-23T15:31:20.706Z,44.77
2022-09-23T15:33:53.877Z,44.73
2022-09-23T15:36:28.306Z,45.19
2022-09-23T15:39:03.238Z,44.87
2022-09-23T15:41:36.658Z,44.63
2022-09-23T15:44:14.331Z,44.69
2022-09-23T15:46:48.547Z,44.89
2022-09-23T15:49:26.528Z,44.84
2022-09-23T15:52:00.564Z,44.97
2022-09-23T15:54:33.779Z,45.05
2022-09-23T15:57:07.333Z,44.98
2022-09-23T15:59:42.019Z,44.87
2022-09-23T16:02:21.312Z,45.12
2022-09-23T16:04:54.555Z,45.13
2022-09-23T16:07:28.697Z,45.40
2022-09-23T16:10:02.227Z,45.45
2022-09-23T16:12:35.366Z,45.58
2022-09-23T16:15:13.401Z,45.64
2022-09-23T16:17:46.597Z,45.73
2022-09-23T16:20:19.955Z,45.69
2022-09-23T16:22:54.627Z,45.84
2022-09-23T16:25:29.537Z,45.88
2022-09-23T16:28:03.267Z,45.94
2022-09-23T16:30:37.948Z,46.05
2022-09-23T16:33:11.313Z,46.07
2022-09-23T16:35:44.481Z,46.25
2022-09-23T16:38:17.960Z,46.17
2022-09-23T16:40:51.494Z,46.27
2022-09-23T16:43:24.774Z,46.17
2022-09-23T16:45:59.436Z,46.37
2022-09-23T16:48:32.905Z,46.45
2022-09-23T16:51:06.215Z,46.53
2022-09-23T16:53:39.706Z,46.56
2022-09-23T16:56:13.219Z,46.55
2022-09-23T16:58:46.463Z,46.49
2022-09-23T17:01:39.518Z,46.67
2022-09-23T17:04:13.450Z,46.68
2022-09-23T17:06:51.959Z,46.78
2022-09-23T17:09:26.366Z,46.96
2022-09-23T17:12:04.226Z,46.82
2022-09-23T17:14:37.692Z,46.69
2022-09-23T17:17:12.340Z,46.84
2022-09-23T17:19:45.895Z,46.88
2022-09-23T17:22:19.124Z,46.82
2022-09-23T17:24:52.544Z,46.91
2022-09-23T17:27:25.918Z,46.93
2022-09-23T17:29:59.404Z,46.89
2022-09-23T17:32:34.264Z,47.01
2022-09-23T17:35:08.135Z,47.01
2022-09-23T17:37:41.339Z,47.07
2022-09-23T17:40:14.712Z,47.00
2022-09-23T17:42:48.117Z,47.07
2022-09-23T17:45:21.187Z,47.08
2022-09-23T17:47:56.007Z,47.17
2022-09-23T17:50:31.272Z,47.14
2022-09-23T17:53:05.087Z,47.20
2022-09-23T17:55:38.188Z,46.96
2022-09-23T17:58:11.340Z,47.12
2022-09-23T18:00:47.146Z,47.08
2022-09-23T18:03:21.730Z,47.13
2022-09-23T18:05:55.105Z,46.94
2022-09-23T18:08:31.206Z,46.98
2022-09-23T18:11:11.664Z,47.03
2022-09-23T18:13:48.723Z,47.02
2022-09-23T18:16:23.809Z,46.90
2022-09-23T18:18:59.418Z,47.05
2022-09-23T18:21:34.107Z,46.98
2022-09-23T18:27:02.787Z,47.13
2022-09-23T18:29:38.617Z,47.08
2022-09-23T18:32:14.261Z,47.01
2022-09-23T18:34:49.246Z,47.01
2022-09-23T18:37:22.437Z,46.92
2022-09-23T18:39:55.564Z,46.91
2022-09-23T18:42:29.646Z,46.94
2022-09-23T18:45:04.944Z,46.94
2022-09-23T18:47:55.368Z,46.85
2022-09-23T18:50:43.666Z,47.08
2022-09-23T18:53:16.712Z,47.02
2022-09-23T18:55:50.009Z,47.20
2022-09-23T18:58:23.446Z,47.18
2022-09-23T19:00:56.680Z,47.02
2022-09-23T19:03:29.902Z,47.04
2022-09-23T19:06:05.759Z,47.09
2022-09-23T19:08:39.400Z,47.04
2022-09-23T19:11:14.357Z,47.10
2022-09-23T19:13:47.760Z,47.27
2022-09-23T19:16:21.890Z,47.42
2022-09-23T19:18:55.107Z,47.30
2022-09-23T19:21:30.451Z,47.05
2022-09-23T19:24:04.716Z,47.10
2022-09-23T19:26:40.783Z,47.29
2022-09-23T19:29:14.844Z,47.27
2022-09-23T19:31:49.071Z,47.45
2022-09-23T19:34:24.803Z,47.34
2022-09-23T19:36:59.753Z,47.40
2022-09-23T19:39:34.616Z,47.48
2022-09-23T19:42:07.925Z,47.40
2022-09-23T19:44:41.092Z,47.48
2022-09-23T19:47:17.402Z,47.52
2022-09-23T19:49:50.912Z,47.58
2022-09-23T19:52:25.727Z,47.53
2022-09-23T19:55:01.077Z,47.66
2022-09-23T19:57:34.543Z,47.71
2022-09-23T20:00:08.258Z,48.04
2022-09-23T20:02:45.778Z,47.76
2022-09-23T20:05:20.424Z,47.89
2022-09-23T20:07:55.482Z,47.89
2022-09-23T20:10:29.200Z,47.77
2022-09-23T20:13:03.086Z,47.67
2022-09-23T20:15:36.209Z,47.91
2022-09-23T20:18:10.148Z,47.93
2022-09-23T20:20:43.441Z,47.89
2022-09-23T20:23:18.060Z,48.19
2022-09-23T20:26:13.509Z,47.87
2022-09-23T20:28:46.940Z,47.82
2022-09-23T20:31:21.971Z,48.04
2022-09-23T20:33:58.260Z,48.38
2022-09-23T20:56:29.202Z,49.37
2022-09-23T20:59:03.939Z,50.15
2022-09-23T21:01:37.623Z,50.51
2022-09-23T21:04:11.201Z,50.34
2022-09-23T21:06:44.632Z,50.63
2022-09-23T21:09:18.352Z,50.38
2022-09-23T21:11:53.172Z,50.38
2022-09-23T21:14:26.590Z,50.71
2022-09-23T21:17:00.190Z,50.78
2022-09-23T21:19:35.185Z,50.66
2022-09-23T21:22:09.183Z,50.66
2022-09-23T21:25:25.856Z,50.55
2022-09-23T21:27:38.032Z,50.67
2022-09-23T21:33:07.049Z,50.51
2022-09-23T21:36:10.878Z,50.50
2022-09-23T21:39:15.149Z,50.70
2022-09-23T21:42:18.643Z,51.08
2022-09-23T21:45:21.983Z,51.07
2022-09-23T21:48:27.908Z,51.00
2022-09-23T21:51:34.254Z,50.76
2022-09-23T21:54:37.635Z,50.88
2022-09-23T21:57:41.481Z,50.81
2022-09-23T22:00:45.945Z,50.66
2022-09-23T22:03:53.826Z,50.41
2022-09-23T22:06:57.372Z,50.41
2022-09-23T22:10:00.629Z,50.38
2022-09-23T22:13:06.275Z,50.42
2022-09-23T22:16:16.659Z,50.56
2022-09-23T22:19:21.499Z,50.34
2022-09-23T22:22:24.748Z,50.36
2022-09-23T22:25:28.872Z,50.15
2022-09-23T22:28:51.511Z,50.50
2022-09-23T22:32:12.372Z,50.08
2022-09-23T22:35:18.765Z,50.10
2022-09-23T22:38:23.371Z,50.21
2022-09-23T22:41:27.587Z,50.16
2022-09-23T22:44:30.938Z,50.21
2022-09-23T22:47:37.077Z,49.97
2022-09-23T22:50:41.901Z,50.03
2022-09-23T22:53:45.289Z,49.94
2022-09-23T22:56:48.697Z,50.07
2022-09-23T22:59:52.083Z,50.10
2022-09-23T23:02:55.433Z,50.18
2022-09-23T23:06:02.657Z,50.01
2022-09-23T23:09:08.087Z,50.15
2022-09-23T23:12:11.395Z,50.01
2022-09-23T23:15:15.665Z,50.13
2022-09-23T23:18:18.932Z,49.65
2022-09-23T23:21:24.110Z,50.30
2022-09-23T23:24:27.507Z,49.88
2022-09-23T23:27:30.901Z,49.87
2022-09-23T23:30:35.026Z,49.86
2022-09-23T23:33:38.958Z,49.75
2022-09-23T23:36:43.958Z,49.77
2022-09-23T23:39:47.758Z,49.67
2022-09-23T23:42:51.257Z,49.55
2022-09-23T23:45:56.248Z,49.46
2022-09-23T23:49:00.897Z,49.57
2022-09-23T23:52:05.692Z,49.65
2022-09-23T23:55:09.779Z,49.60
2022-09-23T23:58:13.265Z,49.39
